createdAt,value
2023-02-19T00:03:14.430Z,66.97
2023-02-19T00:08:17.048Z,68.71
2023-02-19T00:13:19.809Z,65.32
2023-02-19T00:18:23.325Z,63.42
2023-02-19T00:23:27.059Z,61.86
2023-02-19T00:28:30.780Z,60.91
2023-02-19T00:33:36.504Z,60.21
2023-02-19T00:38:40.508Z,59.66
2023-02-19T00:43:43.184Z,55.99
2023-02-19T00:48:46.675Z,57.49
2023-02-19T00:53:49.641Z,58.19
2023-02-19T00:58:52.613Z,60.52
2023-02-19T01:03:55.430Z,68.07
2023-02-19T01:08:58.832Z,69.82
2023-02-19T01:14:02.346Z,65.27
2023-02-19T01:19:04.962Z,64.04
2023-02-19T01:24:07.609Z,63.14
2023-02-19T01:29:10.520Z,61.92
2023-02-19T01:34:13.157Z,60.94
2023-02-19T01:39:15.842Z,60.47
2023-02-19T01:44:18.511Z,59.76
2023-02-19T01:49:27.115Z,56.89
2023-02-19T01:54:34.804Z,57.25
2023-02-19T01:59:38.226Z,59.47
2023-02-19T02:04:41.005Z,65.94
2023-02-19T02:09:59.517Z,68.52
2023-02-19T02:15:03.120Z,65.80
2023-02-19T02:20:36.540Z,63.77
2023-02-19T02:25:55.265Z,61.91
2023-02-19T02:31:04.409Z,60.63
2023-02-19T02:36:14.712Z,59.48
2023-02-19T02:41:17.358Z,55.71
2023-02-19T02:46:28.175Z,57.16
2023-02-19T02:51:36.259Z,59.61
2023-02-19T02:56:41.333Z,65.07
2023-02-19T03:02:05.875Z,67.87
2023-02-19T03:07:10.448Z,64.34
2023-02-19T03:12:30.501Z,62.36
2023-02-19T03:17:57.874Z,60.46
2023-02-19T03:23:02.078Z,56.22
2023-02-19T03:28:08.790Z,58.24
2023-02-19T03:33:19.064Z,59.72
2023-02-19T03:38:40.716Z,66.37
2023-02-19T03:43:50.800Z,67.33
2023-02-19T03:49:00.107Z,64.43
2023-02-19T03:54:09.270Z,62.19
2023-02-19T03:59:17.358Z,61.09
2023-02-19T04:04:36.479Z,58.43
2023-02-19T04:09:46.820Z,56.73
2023-02-19T04:14:54.790Z,59.88
2023-02-19T04:20:00.817Z,66.90
2023-02-19T04:25:05.245Z,67.34
2023-02-19T04:30:11.282Z,62.75
2023-02-19T04:35:13.979Z,61.08
2023-02-19T04:40:17.229Z,57.52
2023-02-19T04:45:19.779Z,57.22
2023-02-19T04:50:23.310Z,59.94
2023-02-19T04:55:26.149Z,65.76
2023-02-19T05:00:28.740Z,67.26
2023-02-19T05:05:31.575Z,64.18
2023-02-19T05:10:34.732Z,61.63
2023-02-19T05:15:37.387Z,60.60
2023-02-19T05:20:40.085Z,56.72
2023-02-19T05:25:42.724Z,57.53
2023-02-19T05:30:51.433Z,59.63
2023-02-19T05:35:55.986Z,65.67
2023-02-19T05:41:16.943Z,66.70
2023-02-19T05:46:22.840Z,64.26
2023-02-19T05:51:27.448Z,61.96
2023-02-19T05:56:33.253Z,60.39
2023-02-19T06:01:36.175Z,57.03
2023-02-19T06:06:39.276Z,57.77
2023-02-19T06:11:43.360Z,59.87
2023-02-19T06:16:46.054Z,67.08
2023-02-19T06:21:50.357Z,67.98
2023-02-19T06:26:52.943Z,63.71
2023-02-19T06:31:55.725Z,61.49
2023-02-19T06:36:59.256Z,60.00
2023-02-19T06:42:01.825Z,56.43
2023-02-19T06:47:05.464Z,56.46
2023-02-19T06:52:08.182Z,59.46
2023-02-19T06:57:10.778Z,61.55
2023-02-19T07:02:13.701Z,68.09
2023-02-19T07:07:17.638Z,66.43
2023-02-19T07:12:20.224Z,62.60
2023-02-19T07:17:22.820Z,60.59
2023-02-19T07:22:25.673Z,56.85
2023-02-19T07:27:28.300Z,58.04
2023-02-19T07:32:31.006Z,60.12
2023-02-19T07:37:34.696Z,67.25
2023-02-19T07:42:37.728Z,66.51
2023-02-19T07:47:40.377Z,62.90
2023-02-19T07:52:43.100Z,60.54
2023-02-19T07:57:45.731Z,56.62
2023-02-19T08:03:04.430Z,56.16
2023-02-19T08:08:09.615Z,62.28
2023-02-19T08:13:31.066Z,65.37
2023-02-19T08:18:35.214Z,62.50
2023-02-19T08:23:38.181Z,59.19
2023-02-19T08:28:41.828Z,54.71
2023-02-19T08:33:44.432Z,56.78
2023-02-19T08:38:47.818Z,60.56
2023-02-19T08:43:50.485Z,65.71
2023-02-19T08:48:53.206Z,65.01
2023-02-19T08:53:55.914Z,61.37
2023-02-19T08:58:58.526Z,57.36
2023-02-19T09:04:01.163Z,57.53
2023-02-19T09:09:03.940Z,60.40
2023-02-19T09:14:07.602Z,66.73
2023-02-19T09:19:10.213Z,64.08
2023-02-19T09:24:13.470Z,59.40
2023-02-19T09:29:21.158Z,55.50
2023-02-19T09:34:25.331Z,58.05
2023-02-19T09:39:29.388Z,59.46
2023-02-19T09:44:38.107Z,63.70
2023-02-19T09:49:49.820Z,65.46
2023-02-19T09:54:57.995Z,60.26
2023-02-19T10:00:07.233Z,54.12
2023-02-19T10:05:18.172Z,54.91
2023-02-19T10:10:27.378Z,60.30
2023-02-19T10:15:38.113Z,63.57
2023-02-19T10:20:40.838Z,54.08
2023-02-19T10:25:54.316Z,56.41
2023-02-19T10:31:00.342Z,61.65
2023-02-19T10:36:06.216Z,55.79
2023-02-19T10:41:23.075Z,58.55
2023-02-19T10:46:29.684Z,56.17
2023-02-19T10:51:35.168Z,60.52
2023-02-19T10:56:40.758Z,63.26
2023-02-19T11:02:04.013Z,56.90
2023-02-19T11:07:13.932Z,56.88
2023-02-19T11:12:33.385Z,58.98
2023-02-19T11:17:36.585Z,62.42
2023-02-19T11:22:41.988Z,60.59
2023-02-19T11:28:06.813Z,53.77
2023-02-19T11:33:24.376Z,55.03
2023-02-19T11:38:27.252Z,57.10
2023-02-19T11:43:53.372Z,59.13
2023-02-19T11:49:27.631Z,58.97
2023-02-19T11:54:39.433Z,60.53
2023-02-19T12:00:01.091Z,60.61
2023-02-19T12:05:20.531Z,53.63
2023-02-19T12:10:55.146Z,52.22
2023-02-19T12:16:04.910Z,55.58
2023-02-19T12:21:18.626Z,57.53
2023-02-19T12:26:30.257Z,58.69
2023-02-19T12:31:58.729Z,58.76
2023-02-19T12:37:33.320Z,58.04
2023-02-19T12:42:54.819Z,57.33
2023-02-19T12:48:06.316Z,56.55
2023-02-19T12:53:51.494Z,56.33
2023-02-19T12:59:01.131Z,57.74
2023-02-19T13:04:39.657Z,58.48
2023-02-19T13:09:55.280Z,58.04
2023-02-19T13:15:02.632Z,56.96
2023-02-19T13:20:20.360Z,56.84
2023-02-19T13:26:00.168Z,57.21
2023-02-19T13:31:11.908Z,56.52
2023-02-19T13:36:24.086Z,57.02
2023-02-19T13:41:27.152Z,56.53
2023-02-19T13:46:46.975Z,56.68
2023-02-19T13:51:57.213Z,55.60
2023-02-19T13:57:29.326Z,56.56
2023-02-19T14:02:35.148Z,56.83
2023-02-19T14:08:03.066Z,55.85
2023-02-19T14:13:10.046Z,54.24
2023-02-19T14:18:43.671Z,54.67
2023-02-19T14:23:56.711Z,55.74
2023-02-19T14:29:01.532Z,55.46
2023-02-19T14:34:14.112Z,56.02
2023-02-19T14:39:40.152Z,56.29
2023-02-19T14:44:57.419Z,55.88
2023-02-19T14:50:04.702Z,57.40
2023-02-19T14:55:20.725Z,56.62
2023-02-19T15:00:43.658Z,56.23
2023-02-19T15:05:46.687Z,56.52
2023-02-19T15:10:50.489Z,55.58
2023-02-19T15:15:55.376Z,55.65
2023-02-19T15:21:03.965Z,55.83
2023-02-19T15:26:21.289Z,54.62
2023-02-19T15:31:24.004Z,55.10
2023-02-19T15:36:33.970Z,56.12
2023-02-19T15:41:36.759Z,55.85
2023-02-19T15:46:41.622Z,56.38
2023-02-19T15:51:57.094Z,56.65
2023-02-19T15:57:06.007Z,56.98
2023-02-19T16:02:13.548Z,56.81
2023-02-19T16:07:32.756Z,57.07
2023-02-19T16:12:35.992Z,56.71
2023-02-19T16:17:43.161Z,56.90
2023-02-19T16:22:45.976Z,56.51
2023-02-19T16:27:48.872Z,57.01
2023-02-19T16:33:21.936Z,56.99
2023-02-19T16:38:24.709Z,57.13
2023-02-19T16:43:44.872Z,57.27
2023-02-19T16:48:48.366Z,57.66
2023-02-19T16:53:51.164Z,57.54
2023-02-19T16:58:53.907Z,57.53
2023-02-19T17:04:02.933Z,57.61
2023-02-19T17:09:09.175Z,57.78
2023-02-19T17:14:13.156Z,58.05
2023-02-19T17:19:18.301Z,58.42
2023-02-19T17:24:20.986Z,58.62
2023-02-19T17:29:24.551Z,58.75
2023-02-19T17:34:30.876Z,58.61
2023-02-19T17:39:33.514Z,58.61
2023-02-19T17:44:36.143Z,58.46
2023-02-19T17:49:38.765Z,58.39
2023-02-19T17:54:42.946Z,58.50
2023-02-19T17:59:45.639Z,58.54
2023-02-19T18:04:48.192Z,58.71
2023-02-19T18:09:50.772Z,58.65
2023-02-19T18:14:54.601Z,58.76
2023-02-19T18:19:57.182Z,59.00
2023-02-19T18:25:00.105Z,59.34
2023-02-19T18:30:03.302Z,59.42
2023-02-19T18:35:06.472Z,59.62
2023-02-19T18:40:11.456Z,59.91
2023-02-19T18:45:14.108Z,59.88
2023-02-19T18:50:18.239Z,60.08
2023-02-19T18:55:23.291Z,60.01
2023-02-19T19:00:26.659Z,60.04
2023-02-19T19:05:29.356Z,60.18
2023-02-19T19:10:31.956Z,60.48
2023-02-19T19:15:35.296Z,60.79
2023-02-19T19:20:37.983Z,60.89
2023-02-19T19:25:40.558Z,60.93
2023-02-19T19:30:43.257Z,61.15
2023-02-19T19:35:45.965Z,61.34
2023-02-19T19:40:48.756Z,61.46
2023-02-19T19:45:51.474Z,61.73
2023-02-19T19:50:56.654Z,61.61
2023-02-19T19:56:01.126Z,61.77
2023-02-19T20:01:07.070Z,61.84
2023-02-19T20:06:10.182Z,61.78
2023-02-19T20:11:13.096Z,62.20
2023-02-19T20:16:16.087Z,65.63
2023-02-19T20:21:18.852Z,65.11
2023-02-19T20:26:27.215Z,60.71
2023-02-19T20:31:33.836Z,54.43
2023-02-19T20:36:44.646Z,55.05
2023-02-19T20:41:50.545Z,57.05
2023-02-19T20:46:54.952Z,59.12
2023-02-19T20:52:00.494Z,60.02
2023-02-19T20:57:05.537Z,61.08
2023-02-19T21:02:16.779Z,63.95
2023-02-19T21:07:20.147Z,67.35
2023-02-19T21:12:23.265Z,63.10
2023-02-19T21:17:26.042Z,57.02
2023-02-19T21:22:31.181Z,58.19
2023-02-19T21:27:34.950Z,59.85
2023-02-19T21:32:37.565Z,62.56
2023-02-19T21:37:43.074Z,70.33
2023-02-19T21:42:46.412Z,68.99
2023-02-19T21:47:52.036Z,63.24
2023-02-19T21:52:55.276Z,61.47
2023-02-19T21:57:58.381Z,61.61
2023-02-19T22:03:01.023Z,58.61
2023-02-19T22:08:03.924Z,58.58
2023-02-19T22:13:06.542Z,61.10
2023-02-19T22:18:09.187Z,66.19
2023-02-19T22:23:11.750Z,65.74
2023-02-19T22:28:14.605Z,63.74
2023-02-19T22:33:17.186Z,61.48
2023-02-19T22:38:20.127Z,60.00
2023-02-19T22:43:22.698Z,58.35
2023-02-19T22:48:30.094Z,60.76
2023-02-19T22:53:33.092Z,65.08
2023-02-19T22:58:35.732Z,65.77
2023-02-19T23:03:55.995Z,64.75
2023-02-19T23:09:04.558Z,63.44
2023-02-19T23:14:07.767Z,59.23
2023-02-19T23:19:13.325Z,61.11
2023-02-19T23:24:17.894Z,65.15
2023-02-19T23:29:25.167Z,64.40
2023-02-19T23:34:28.584Z,62.77
2023-02-19T23:39:31.240Z,61.15
2023-02-19T23:44:33.959Z,61.57
2023-02-19T23:49:36.608Z,60.07
2023-02-19T23:54:39.452Z,59.25
2023-02-19T23:59:42.062Z,64.01
